sensor_id;sensor_type;location;lat;lon;timestamp;P1;durP1;ratioP1;P2;durP2;ratioP2
1569;SDS011;778;50.120;8.698;2022-12-01T00:01:36;32.00;;;20.83;;
1569;SDS011;778;50.120;8.698;2022-12-01T00:04:04;26.10;;;17.90;;
1569;SDS011;778;50.120;8.698;2022-12-01T00:06:34;31.87;;;20.80;;
1569;SDS011;778;50.120;8.698;2022-12-01T00:09:03;32.90;;;19.00;;
1569;SDS011;778;50.120;8.698;2022-12-01T00:11:49;31.80;;;19.60;;
1569;SDS011;778;50.120;8.698;2022-12-01T00:14:18;29.23;;;19.37;;
1569;SDS011;778;50.120;8.698;2022-12-01T00:16:47;38.23;;;21.50;;
1569;SDS011;778;50.120;8.698;2022-12-01T00:19:15;32.40;;;20.23;;
1569;SDS011;778;50.120;8.698;2022-12-01T00:21:45;33.33;;;20.03;;
1569;SDS011;778;50.120;8.698;2022-12-01T00:24:14;31.97;;;20.20;;
1569;SDS011;778;50.120;8.698;2022-12-01T00:26:42;31.30;;;20.10;;
1569;SDS011;778;50.120;8.698;2022-12-01T00:29:11;31.93;;;19.93;;
1569;SDS011;778;50.120;8.698;2022-12-01T00:31:39;39.87;;;21.83;;
1569;SDS011;778;50.120;8.698;2022-12-01T00:34:10;33.70;;;20.33;;
1569;SDS011;778;50.120;8.698;2022-12-01T00:36:50;36.40;;;21.63;;
1569;SDS011;778;50.120;8.698;2022-12-01T00:39:19;37.70;;;21.37;;
1569;SDS011;778;50.120;8.698;2022-12-01T00:41:47;35.10;;;20.17;;
1569;SDS011;778;50.120;8.698;2022-12-01T00:44:16;33.97;;;18.30;;
1569;SDS011;778;50.120;8.698;2022-12-01T00:46:44;37.13;;;21.33;;
1569;SDS011;778;50.120;8.698;2022-12-01T00:49:13;37.07;;;20.80;;
1569;SDS011;778;50.120;8.698;2022-12-01T00:51:42;38.30;;;21.47;;
1569;SDS011;778;50.120;8.698;2022-12-01T00:54:12;32.43;;;20.97;;
1569;SDS011;778;50.120;8.698;2022-12-01T00:56:40;30.30;;;18.90;;
1569;SDS011;778;50.120;8.698;2022-12-01T00:59:09;33.67;;;18.80;;
1569;SDS011;778;50.120;8.698;2022-12-01T01:01:38;37.20;;;20.30;;
1569;SDS011;778;50.120;8.698;2022-12-01T01:04:06;31.40;;;19.50;;
1569;SDS011;778;50.120;8.698;2022-12-01T01:06:35;34.37;;;18.30;;
1569;SDS011;778;50.120;8.698;2022-12-01T01:09:04;35.43;;;22.00;;
1569;SDS011;778;50.120;8.698;2022-12-01T01:11:34;40.77;;;21.80;;
1569;SDS011;778;50.120;8.698;2022-12-01T01:14:03;33.50;;;21.10;;
1569;SDS011;778;50.120;8.698;2022-12-01T01:16:32;36.80;;;20.30;;
1569;SDS011;778;50.120;8.698;2022-12-01T01:19:01;38.53;;;22.37;;
1569;SDS011;778;50.120;8.698;2022-12-01T01:21:30;35.13;;;19.83;;
1569;SDS011;778;50.120;8.698;2022-12-01T01:23:59;37.13;;;20.97;;
1569;SDS011;778;50.120;8.698;2022-12-01T01:26:28;42.30;;;21.20;;
1569;SDS011;778;50.120;8.698;2022-12-01T01:29:00;38.63;;;20.70;;
1569;SDS011;778;50.120;8.698;2022-12-01T01:31:31;32.30;;;19.73;;
1569;SDS011;778;50.120;8.698;2022-12-01T01:34:02;32.07;;;19.97;;
1569;SDS011;778;50.120;8.698;2022-12-01T01:36:31;31.60;;;19.90;;
1569;SDS011;778;50.120;8.698;2022-12-01T01:38:59;33.50;;;20.03;;
1569;SDS011;778;50.120;8.698;2022-12-01T01:41:28;36.13;;;21.77;;
1569;SDS011;778;50.120;8.698;2022-12-01T01:43:57;33.20;;;20.23;;
1569;SDS011;778;50.120;8.698;2022-12-01T01:46:29;34.40;;;18.90;;
1569;SDS011;778;50.120;8.698;2022-12-01T01:49:00;36.10;;;21.23;;
1569;SDS011;778;50.120;8.698;2022-12-01T01:51:32;37.30;;;21.13;;
1569;SDS011;778;50.120;8.698;2022-12-01T01:54:07;35.30;;;20.80;;
1569;SDS011;778;50.120;8.698;2022-12-01T01:56:41;32.00;;;21.20;;
1569;SDS011;778;50.120;8.698;2022-12-01T01:59:12;35.27;;;19.73;;
1569;SDS011;778;50.120;8.698;2022-12-01T02:01:45;37.67;;;22.47;;
1569;SDS011;778;50.120;8.698;2022-12-01T02:04:19;37.13;;;22.40;;
1569;SDS011;778;50.120;8.698;2022-12-01T02:06:47;35.37;;;22.97;;
1569;SDS011;778;50.120;8.698;2022-12-01T02:09:16;34.43;;;21.87;;
1569;SDS011;778;50.120;8.698;2022-12-01T02:11:55;36.50;;;21.90;;
1569;SDS011;778;50.120;8.698;2022-12-01T02:14:40;34.87;;;23.00;;
1569;SDS011;778;50.120;8.698;2022-12-01T02:17:26;36.30;;;21.40;;
1569;SDS011;778;50.120;8.698;2022-12-01T02:26:40;35.50;;;20.73;;
1569;SDS011;778;50.120;8.698;2022-12-01T02:32:34;34.70;;;20.53;;
1569;SDS011;778;50.120;8.698;2022-12-01T02:35:20;37.27;;;21.30;;
1569;SDS011;778;50.120;8.698;2022-12-01T02:37:58;33.53;;;22.30;;
1569;SDS011;778;50.120;8.698;2022-12-01T02:40:38;34.97;;;21.60;;
1569;SDS011;778;50.120;8.698;2022-12-01T02:43:11;32.63;;;21.10;;
1569;SDS011;778;50.120;8.698;2022-12-01T02:45:51;37.27;;;22.43;;
1569;SDS011;778;50.120;8.698;2022-12-01T02:48:25;32.77;;;20.90;;
1569;SDS011;778;50.120;8.698;2022-12-01T02:50:58;34.63;;;21.80;;
1569;SDS011;778;50.120;8.698;2022-12-01T02:53:32;34.17;;;20.80;;
1569;SDS011;778;50.120;8.698;2022-12-01T02:56:04;34.77;;;21.53;;
1569;SDS011;778;50.120;8.698;2022-12-01T02:58:38;28.40;;;20.07;;
1569;SDS011;778;50.120;8.698;2022-12-01T03:01:11;34.17;;;21.43;;
1569;SDS011;778;50.120;8.698;2022-12-01T03:04:00;35.10;;;21.73;;
1569;SDS011;778;50.120;8.698;2022-12-01T03:06:41;31.03;;;19.77;;
1569;SDS011;778;50.120;8.698;2022-12-01T03:09:23;28.60;;;19.60;;
1569;SDS011;778;50.120;8.698;2022-12-01T03:12:03;34.23;;;21.70;;
1569;SDS011;778;50.120;8.698;2022-12-01T03:14:41;33.00;;;22.23;;
1569;SDS011;778;50.120;8.698;2022-12-01T03:17:19;31.17;;;21.70;;
1569;SDS011;778;50.120;8.698;2022-12-01T03:19:58;32.00;;;21.67;;
1569;SDS011;778;50.120;8.698;2022-12-01T03:22:38;34.20;;;22.10;;
1569;SDS011;778;50.120;8.698;2022-12-01T03:25:11;32.90;;;23.10;;
1569;SDS011;778;50.120;8.698;2022-12-01T03:27:42;28.77;;;22.30;;
1569;SDS011;778;50.120;8.698;2022-12-01T03:30:33;27.77;;;20.27;;
1569;SDS011;778;50.120;8.698;2022-12-01T03:33:04;36.90;;;22.53;;
1569;SDS011;778;50.120;8.698;2022-12-01T03:35:39;33.77;;;21.90;;
1569;SDS011;778;50.120;8.698;2022-12-01T03:38:15;27.93;;;19.20;;
1569;SDS011;778;50.120;8.698;2022-12-01T03:40:48;29.10;;;19.43;;
1569;SDS011;778;50.120;8.698;2022-12-01T03:43:21;29.83;;;21.07;;
1569;SDS011;778;50.120;8.698;2022-12-01T03:45:54;35.30;;;21.63;;
1569;SDS011;778;50.120;8.698;2022-12-01T03:48:26;27.50;;;18.37;;
1569;SDS011;778;50.120;8.698;2022-12-01T03:51:01;30.50;;;20.50;;
1569;SDS011;778;50.120;8.698;2022-12-01T03:53:37;33.57;;;20.60;;
1569;SDS011;778;50.120;8.698;2022-12-01T03:56:19;29.20;;;20.17;;
1569;SDS011;778;50.120;8.698;2022-12-01T03:58:53;26.97;;;18.40;;
1569;SDS011;778;50.120;8.698;2022-12-01T04:01:24;34.97;;;20.03;;
1569;SDS011;778;50.120;8.698;2022-12-01T04:04:05;32.43;;;20.60;;
1569;SDS011;778;50.120;8.698;2022-12-01T04:06:38;37.33;;;22.90;;
1569;SDS011;778;50.120;8.698;2022-12-01T04:09:09;33.13;;;21.93;;
1569;SDS011;778;50.120;8.698;2022-12-01T04:11:37;34.80;;;22.13;;
1569;SDS011;778;50.120;8.698;2022-12-01T04:14:23;39.37;;;23.80;;
1569;SDS011;778;50.120;8.698;2022-12-01T04:16:52;33.40;;;21.87;;
1569;SDS011;778;50.120;8.698;2022-12-01T04:19:20;33.77;;;21.77;;
1569;SDS011;778;50.120;8.698;2022-12-01T04:21:50;36.57;;;22.47;;
1569;SDS011;778;50.120;8.698;2022-12-01T04:24:18;33.33;;;23.43;;
1569;SDS011;778;50.120;8.698;2022-12-01T04:26:47;33.00;;;22.53;;
1569;SDS011;778;50.120;8.698;2022-12-01T04:29:15;34.83;;;23.40;;
1569;SDS011;778;50.120;8.698;2022-12-01T04:31:43;34.53;;;23.43;;
1569;SDS011;778;50.120;8.698;2022-12-01T04:34:12;37.40;;;25.40;;
1569;SDS011;778;50.120;8.698;2022-12-01T04:36:40;43.50;;;24.43;;
1569;SDS011;778;50.120;8.698;2022-12-01T04:39:10;37.10;;;23.90;;
1569;SDS011;778;50.120;8.698;2022-12-01T04:41:39;34.47;;;23.33;;
1569;SDS011;778;50.120;8.698;2022-12-01T04:44:08;35.60;;;23.60;;
1569;SDS011;778;50.120;8.698;2022-12-01T04:46:36;32.97;;;21.90;;
1569;SDS011;778;50.120;8.698;2022-12-01T04:49:05;37.80;;;23.60;;
1569;SDS011;778;50.120;8.698;2022-12-01T04:51:34;37.87;;;24.87;;
1569;SDS011;778;50.120;8.698;2022-12-01T04:56:42;35.90;;;23.60;;
1569;SDS011;778;50.120;8.698;2022-12-01T04:59:10;42.73;;;24.77;;
1569;SDS011;778;50.120;8.698;2022-12-01T05:01:39;35.93;;;24.13;;
1569;SDS011;778;50.120;8.698;2022-12-01T05:04:09;38.67;;;24.73;;
1569;SDS011;778;50.120;8.698;2022-12-01T05:06:38;37.90;;;25.10;;
1569;SDS011;778;50.120;8.698;2022-12-01T05:09:08;36.27;;;24.10;;
1569;SDS011;778;50.120;8.698;2022-12-01T05:11:44;42.23;;;23.87;;
1569;SDS011;778;50.120;8.698;2022-12-01T05:14:12;36.93;;;22.70;;
1569;SDS011;778;50.120;8.698;2022-12-01T05:16:41;35.40;;;24.37;;
1569;SDS011;778;50.120;8.698;2022-12-01T05:19:09;34.27;;;21.73;;
1569;SDS011;778;50.120;8.698;2022-12-01T05:21:55;33.50;;;21.20;;
1569;SDS011;778;50.120;8.698;2022-12-01T05:24:24;33.03;;;21.90;;
1569;SDS011;778;50.120;8.698;2022-12-01T05:26:54;34.80;;;23.43;;
1569;SDS011;778;50.120;8.698;2022-12-01T05:29:22;40.67;;;24.23;;
1569;SDS011;778;50.120;8.698;2022-12-01T05:31:51;35.57;;;22.30;;
1569;SDS011;778;50.120;8.698;2022-12-01T05:34:19;30.83;;;19.00;;
1569;SDS011;778;50.120;8.698;2022-12-01T05:36:47;30.40;;;20.50;;
1569;SDS011;778;50.120;8.698;2022-12-01T05:39:16;29.20;;;21.57;;
1569;SDS011;778;50.120;8.698;2022-12-01T05:41:44;29.63;;;20.90;;
1569;SDS011;778;50.120;8.698;2022-12-01T05:44:14;32.30;;;20.03;;
1569;SDS011;778;50.120;8.698;2022-12-01T05:46:43;25.67;;;17.50;;
1569;SDS011;778;50.120;8.698;2022-12-01T05:49:11;35.37;;;19.93;;
1569;SDS011;778;50.120;8.698;2022-12-01T05:51:41;30.60;;;19.43;;
1569;SDS011;778;50.120;8.698;2022-12-01T05:54:09;32.83;;;20.17;;
1569;SDS011;778;50.120;8.698;2022-12-01T05:56:38;29.13;;;20.00;;
1569;SDS011;778;50.120;8.698;2022-12-01T05:59:06;36.77;;;22.97;;
1569;SDS011;778;50.120;8.698;2022-12-01T06:01:36;34.27;;;22.20;;
1569;SDS011;778;50.120;8.698;2022-12-01T06:04:04;32.70;;;19.90;;
1569;SDS011;778;50.120;8.698;2022-12-01T06:06:34;32.03;;;20.00;;
1569;SDS011;778;50.120;8.698;2022-12-01T06:09:02;32.60;;;21.10;;
1569;SDS011;778;50.120;8.698;2022-12-01T06:11:31;27.73;;;19.10;;
1569;SDS011;778;50.120;8.698;2022-12-01T06:13:59;32.40;;;20.10;;
1569;SDS011;778;50.120;8.698;2022-12-01T06:16:27;30.10;;;19.97;;
1569;SDS011;778;50.120;8.698;2022-12-01T06:18:57;28.00;;;20.43;;
1569;SDS011;778;50.120;8.698;2022-12-01T06:21:26;31.23;;;20.53;;
1569;SDS011;778;50.120;8.698;2022-12-01T06:23:54;26.23;;;18.60;;
1569;SDS011;778;50.120;8.698;2022-12-01T06:26:22;28.83;;;19.07;;
1569;SDS011;778;50.120;8.698;2022-12-01T06:28:51;29.50;;;19.37;;
1569;SDS011;778;50.120;8.698;2022-12-01T06:31:19;28.67;;;18.43;;
1569;SDS011;778;50.120;8.698;2022-12-01T06:33:48;27.63;;;19.83;;
1569;SDS011;778;50.120;8.698;2022-12-01T06:36:18;28.80;;;17.53;;
1569;SDS011;778;50.120;8.698;2022-12-01T06:38:46;28.93;;;18.77;;
1569;SDS011;778;50.120;8.698;2022-12-01T06:41:14;31.10;;;20.53;;
1569;SDS011;778;50.120;8.698;2022-12-01T06:43:43;28.50;;;18.90;;
1569;SDS011;778;50.120;8.698;2022-12-01T06:46:11;29.30;;;19.13;;
1569;SDS011;778;50.120;8.698;2022-12-01T06:48:40;31.77;;;20.43;;
1569;SDS011;778;50.120;8.698;2022-12-01T06:51:09;29.60;;;19.20;;
1569;SDS011;778;50.120;8.698;2022-12-01T06:53:38;33.63;;;19.47;;
1569;SDS011;778;50.120;8.698;2022-12-01T06:56:07;33.17;;;19.63;;
1569;SDS011;778;50.120;8.698;2022-12-01T06:58:36;27.80;;;18.60;;
1569;SDS011;778;50.120;8.698;2022-12-01T07:01:07;29.90;;;18.20;;
1569;SDS011;778;50.120;8.698;2022-12-01T07:03:37;32.07;;;18.93;;
1569;SDS011;778;50.120;8.698;2022-12-01T07:06:06;29.97;;;17.73;;
1569;SDS011;778;50.120;8.698;2022-12-01T07:08:35;31.63;;;17.70;;
1569;SDS011;778;50.120;8.698;2022-12-01T07:11:05;30.17;;;17.57;;
1569;SDS011;778;50.120;8.698;2022-12-01T07:13:38;26.63;;;16.80;;
1569;SDS011;778;50.120;8.698;2022-12-01T07:16:08;26.73;;;17.17;;
1569;SDS011;778;50.120;8.698;2022-12-01T07:18:36;24.07;;;16.37;;
1569;SDS011;778;50.120;8.698;2022-12-01T07:21:06;22.07;;;15.67;;
1569;SDS011;778;50.120;8.698;2022-12-01T07:23:38;23.90;;;15.47;;
1569;SDS011;778;50.120;8.698;2022-12-01T07:26:09;26.70;;;16.30;;
1569;SDS011;778;50.120;8.698;2022-12-01T07:28:40;24.60;;;16.47;;
1569;SDS011;778;50.120;8.698;2022-12-01T07:31:10;21.50;;;14.63;;
1569;SDS011;778;50.120;8.698;2022-12-01T07:33:40;23.20;;;16.23;;
1569;SDS011;778;50.120;8.698;2022-12-01T07:36:09;20.40;;;15.00;;
1569;SDS011;778;50.120;8.698;2022-12-01T07:38:40;18.90;;;12.77;;
1569;SDS011;778;50.120;8.698;2022-12-01T07:41:10;22.03;;;14.97;;
1569;SDS011;778;50.120;8.698;2022-12-01T07:43:40;21.37;;;15.20;;
1569;SDS011;778;50.120;8.698;2022-12-01T07:46:10;22.07;;;15.70;;
1569;SDS011;778;50.120;8.698;2022-12-01T07:48:48;22.17;;;15.10;;
1569;SDS011;778;50.120;8.698;2022-12-01T07:51:17;21.80;;;13.10;;
1569;SDS011;778;50.120;8.698;2022-12-01T07:53:47;20.60;;;12.57;;
1569;SDS011;778;50.120;8.698;2022-12-01T07:56:18;18.30;;;14.00;;
1569;SDS011;778;50.120;8.698;2022-12-01T07:58:48;23.43;;;15.00;;
1569;SDS011;778;50.120;8.698;2022-12-01T08:01:18;18.83;;;12.90;;
1569;SDS011;778;50.120;8.698;2022-12-01T08:03:48;21.80;;;14.60;;
1569;SDS011;778;50.120;8.698;2022-12-01T08:06:19;22.70;;;15.90;;
1569;SDS011;778;50.120;8.698;2022-12-01T08:08:49;21.37;;;14.53;;
1569;SDS011;778;50.120;8.698;2022-12-01T08:11:20;23.73;;;15.43;;
1569;SDS011;778;50.120;8.698;2022-12-01T08:13:50;20.97;;;13.67;;
1569;SDS011;778;50.120;8.698;2022-12-01T08:16:20;22.17;;;15.37;;
1569;SDS011;778;50.120;8.698;2022-12-01T08:18:50;25.43;;;17.20;;
1569;SDS011;778;50.120;8.698;2022-12-01T08:21:20;24.43;;;14.93;;
1569;SDS011;778;50.120;8.698;2022-12-01T08:23:53;22.63;;;15.40;;
1569;SDS011;778;50.120;8.698;2022-12-01T08:26:25;19.30;;;13.00;;
1569;SDS011;778;50.120;8.698;2022-12-01T08:28:54;22.97;;;15.77;;
1569;SDS011;778;50.120;8.698;2022-12-01T08:31:24;19.73;;;13.70;;
1569;SDS011;778;50.120;8.698;2022-12-01T08:33:54;24.00;;;15.90;;
1569;SDS011;778;50.120;8.698;2022-12-01T08:36:24;24.50;;;15.10;;
1569;SDS011;778;50.120;8.698;2022-12-01T08:38:53;21.17;;;15.60;;
1569;SDS011;778;50.120;8.698;2022-12-01T08:41:22;21.33;;;15.13;;
1569;SDS011;778;50.120;8.698;2022-12-01T08:43:53;23.67;;;16.77;;
1569;SDS011;778;50.120;8.698;2022-12-01T08:46:25;25.00;;;16.80;;
1569;SDS011;778;50.120;8.698;2022-12-01T08:48:55;24.47;;;17.10;;
1569;SDS011;778;50.120;8.698;2022-12-01T08:51:24;25.30;;;17.57;;
1569;SDS011;778;50.120;8.698;2022-12-01T08:53:53;24.97;;;15.57;;
1569;SDS011;778;50.120;8.698;2022-12-01T08:56:26;23.43;;;14.57;;
1569;SDS011;778;50.120;8.698;2022-12-01T08:58:56;25.27;;;17.33;;
1569;SDS011;778;50.120;8.698;2022-12-01T09:01:25;26.20;;;18.27;;
1569;SDS011;778;50.120;8.698;2022-12-01T09:03:55;25.83;;;17.93;;
1569;SDS011;778;50.120;8.698;2022-12-01T09:06:37;25.50;;;16.60;;
1569;SDS011;778;50.120;8.698;2022-12-01T09:09:07;29.40;;;16.60;;
1569;SDS011;778;50.120;8.698;2022-12-01T09:11:39;23.97;;;16.60;;
1569;SDS011;778;50.120;8.698;2022-12-01T09:14:09;25.37;;;17.20;;
1569;SDS011;778;50.120;8.698;2022-12-01T09:16:37;26.00;;;17.83;;
1569;SDS011;778;50.120;8.698;2022-12-01T09:19:06;27.70;;;16.87;;
1569;SDS011;778;50.120;8.698;2022-12-01T09:21:38;24.90;;;17.43;;
1569;SDS011;778;50.120;8.698;2022-12-01T09:24:08;30.53;;;18.83;;
1569;SDS011;778;50.120;8.698;2022-12-01T09:26:39;22.40;;;15.87;;
1569;SDS011;778;50.120;8.698;2022-12-01T09:29:11;25.00;;;16.80;;
1569;SDS011;778;50.120;8.698;2022-12-01T09:31:41;24.50;;;17.10;;
1569;SDS011;778;50.120;8.698;2022-12-01T09:34:11;27.37;;;17.00;;
1569;SDS011;778;50.120;8.698;2022-12-01T09:36:41;21.97;;;16.33;;
1569;SDS011;778;50.120;8.698;2022-12-01T09:39:10;24.30;;;16.00;;
1569;SDS011;778;50.120;8.698;2022-12-01T09:41:43;22.80;;;15.57;;
1569;SDS011;778;50.120;8.698;2022-12-01T09:44:15;20.13;;;13.90;;
1569;SDS011;778;50.120;8.698;2022-12-01T09:46:57;21.70;;;15.00;;
1569;SDS011;778;50.120;8.698;2022-12-01T09:49:43;26.33;;;17.07;;
1569;SDS011;778;50.120;8.698;2022-12-01T09:52:20;22.10;;;15.40;;
1569;SDS011;778;50.120;8.698;2022-12-01T09:54:51;22.40;;;15.30;;
1569;SDS011;778;50.120;8.698;2022-12-01T09:57:26;22.67;;;15.50;;
1569;SDS011;778;50.120;8.698;2022-12-01T10:00:00;24.20;;;16.10;;
1569;SDS011;778;50.120;8.698;2022-12-01T10:02:41;23.27;;;14.77;;
1569;SDS011;778;50.120;8.698;2022-12-01T10:05:17;22.40;;;15.07;;
1569;SDS011;778;50.120;8.698;2022-12-01T10:07:49;20.40;;;15.70;;
1569;SDS011;778;50.120;8.698;2022-12-01T10:10:25;24.10;;;16.10;;
1569;SDS011;778;50.120;8.698;2022-12-01T10:12:59;24.80;;;15.60;;
1569;SDS011;778;50.120;8.698;2022-12-01T10:15:29;24.73;;;15.57;;
1569;SDS011;778;50.120;8.698;2022-12-01T10:18:11;25.40;;;16.10;;
1569;SDS011;778;50.120;8.698;2022-12-01T10:20:55;25.67;;;15.90;;
1569;SDS011;778;50.120;8.698;2022-12-01T10:23:34;22.33;;;15.33;;
1569;SDS011;778;50.120;8.698;2022-12-01T10:26:16;23.10;;;17.37;;
1569;SDS011;778;50.120;8.698;2022-12-01T10:29:04;23.27;;;15.73;;
1569;SDS011;778;50.120;8.698;2022-12-01T10:31:43;26.57;;;16.97;;
1569;SDS011;778;50.120;8.698;2022-12-01T10:34:21;22.83;;;14.63;;
1569;SDS011;778;50.120;8.698;2022-12-01T10:36:52;23.10;;;15.10;;
1569;SDS011;778;50.120;8.698;2022-12-01T10:39:35;23.37;;;16.43;;
1569;SDS011;778;50.120;8.698;2022-12-01T10:42:06;21.20;;;15.47;;
1569;SDS011;778;50.120;8.698;2022-12-01T10:44:41;20.47;;;14.80;;
1569;SDS011;778;50.120;8.698;2022-12-01T10:47:13;21.97;;;15.73;;
1569;SDS011;778;50.120;8.698;2022-12-01T10:49:47;22.63;;;16.33;;
1569;SDS011;778;50.120;8.698;2022-12-01T10:55:23;22.00;;;15.30;;
1569;SDS011;778;50.120;8.698;2022-12-01T10:57:54;22.77;;;16.47;;
1569;SDS011;778;50.120;8.698;2022-12-01T11:00:34;22.97;;;16.20;;
1569;SDS011;778;50.120;8.698;2022-12-01T11:03:26;26.33;;;17.60;;
1569;SDS011;778;50.120;8.698;2022-12-01T11:05:58;23.20;;;15.47;;
1569;SDS011;778;50.120;8.698;2022-12-01T11:08:30;25.97;;;16.27;;
1569;SDS011;778;50.120;8.698;2022-12-01T11:11:14;26.43;;;18.10;;
1569;SDS011;778;50.120;8.698;2022-12-01T11:13:57;25.60;;;16.73;;
1569;SDS011;778;50.120;8.698;2022-12-01T11:16:37;24.73;;;16.90;;
1569;SDS011;778;50.120;8.698;2022-12-01T11:19:18;23.63;;;15.90;;
1569;SDS011;778;50.120;8.698;2022-12-01T11:21:55;31.00;;;18.63;;
1569;SDS011;778;50.120;8.698;2022-12-01T11:24:27;30.87;;;18.97;;
1569;SDS011;778;50.120;8.698;2022-12-01T11:27:12;23.93;;;18.20;;
1569;SDS011;778;50.120;8.698;2022-12-01T11:29:45;25.50;;;18.70;;
1569;SDS011;778;50.120;8.698;2022-12-01T11:32:20;22.90;;;17.63;;
1569;SDS011;778;50.120;8.698;2022-12-01T11:34:52;23.63;;;16.33;;
1569;SDS011;778;50.120;8.698;2022-12-01T11:37:25;24.13;;;17.47;;
1569;SDS011;778;50.120;8.698;2022-12-01T11:40:03;22.70;;;16.90;;
1569;SDS011;778;50.120;8.698;2022-12-01T11:42:36;24.87;;;16.73;;
1569;SDS011;778;50.120;8.698;2022-12-01T11:45:15;23.90;;;15.87;;
1569;SDS011;778;50.120;8.698;2022-12-01T11:48:02;23.27;;;17.07;;
1569;SDS011;778;50.120;8.698;2022-12-01T11:50:35;24.60;;;16.30;;
1569;SDS011;778;50.120;8.698;2022-12-01T11:53:09;22.97;;;17.00;;
1569;SDS011;778;50.120;8.698;2022-12-01T11:55:58;22.20;;;16.77;;
1569;SDS011;778;50.120;8.698;2022-12-01T11:58:50;21.80;;;15.07;;
1569;SDS011;778;50.120;8.698;2022-12-01T12:01:28;23.10;;;16.33;;
1569;SDS011;778;50.120;8.698;2022-12-01T12:04:14;28.33;;;16.80;;
1569;SDS011;778;50.120;8.698;2022-12-01T12:06:58;26.07;;;17.43;;
1569;SDS011;778;50.120;8.698;2022-12-01T12:09:41;23.07;;;15.50;;
1569;SDS011;778;50.120;8.698;2022-12-01T12:12:31;22.23;;;15.73;;
1569;SDS011;778;50.120;8.698;2022-12-01T12:15:18;24.23;;;18.00;;
1569;SDS011;778;50.120;8.698;2022-12-01T12:18:15;21.47;;;14.87;;
1569;SDS011;778;50.120;8.698;2022-12-01T12:21:07;22.30;;;14.73;;
1569;SDS011;778;50.120;8.698;2022-12-01T12:24:00;27.60;;;16.53;;
1569;SDS011;778;50.120;8.698;2022-12-01T12:27:05;19.17;;;14.80;;
1569;SDS011;778;50.120;8.698;2022-12-01T12:29:45;22.53;;;16.47;;
1569;SDS011;778;50.120;8.698;2022-12-01T12:35:38;23.40;;;17.73;;
1569;SDS011;778;50.120;8.698;2022-12-01T12:38:20;25.00;;;17.63;;
1569;SDS011;778;50.120;8.698;2022-12-01T12:41:12;24.77;;;17.93;;
1569;SDS011;778;50.120;8.698;2022-12-01T12:44:00;26.23;;;17.13;;
1569;SDS011;778;50.120;8.698;2022-12-01T12:46:44;25.30;;;18.03;;
1569;SDS011;778;50.120;8.698;2022-12-01T12:49:25;26.73;;;17.53;;
1569;SDS011;778;50.120;8.698;2022-12-01T12:52:05;24.87;;;18.80;;
1569;SDS011;778;50.120;8.698;2022-12-01T12:54:40;25.80;;;18.50;;
1569;SDS011;778;50.120;8.698;2022-12-01T12:57:18;24.20;;;17.33;;
1569;SDS011;778;50.120;8.698;2022-12-01T12:59:52;26.23;;;18.10;;
1569;SDS011;778;50.120;8.698;2022-12-01T13:02:27;23.97;;;18.47;;
1569;SDS011;778;50.120;8.698;2022-12-01T13:05:04;27.20;;;17.73;;
1569;SDS011;778;50.120;8.698;2022-12-01T13:07:38;26.67;;;18.10;;
1569;SDS011;778;50.120;8.698;2022-12-01T13:10:15;24.17;;;18.20;;
1569;SDS011;778;50.120;8.698;2022-12-01T13:12:53;22.40;;;16.73;;
1569;SDS011;778;50.120;8.698;2022-12-01T13:15:26;22.07;;;17.50;;
1569;SDS011;778;50.120;8.698;2022-12-01T13:17:57;26.90;;;18.53;;
1569;SDS011;778;50.120;8.698;2022-12-01T13:20:39;22.53;;;16.17;;
1569;SDS011;778;50.120;8.698;2022-12-01T13:23:09;25.00;;;17.13;;
1569;SDS011;778;50.120;8.698;2022-12-01T13:25:46;29.70;;;17.80;;
1569;SDS011;778;50.120;8.698;2022-12-01T13:28:20;24.53;;;16.67;;
1569;SDS011;778;50.120;8.698;2022-12-01T13:30:56;25.63;;;17.93;;
1569;SDS011;778;50.120;8.698;2022-12-01T13:33:27;25.70;;;17.83;;
1569;SDS011;778;50.120;8.698;2022-12-01T13:35:57;26.73;;;17.43;;
1569;SDS011;778;50.120;8.698;2022-12-01T13:38:51;34.50;;;18.60;;
1569;SDS011;778;50.120;8.698;2022-12-01T13:41:27;26.87;;;17.77;;
1569;SDS011;778;50.120;8.698;2022-12-01T13:43:59;20.90;;;16.40;;
1569;SDS011;778;50.120;8.698;2022-12-01T13:46:31;24.93;;;16.90;;
1569;SDS011;778;50.120;8.698;2022-12-01T13:49:37;22.97;;;16.03;;
1569;SDS011;778;50.120;8.698;2022-12-01T13:52:25;24.20;;;17.47;;
1569;SDS011;778;50.120;8.698;2022-12-01T14:04:29;24.33;;;18.07;;
1569;SDS011;778;50.120;8.698;2022-12-01T14:10:14;24.03;;;16.20;;
1569;SDS011;778;50.120;8.698;2022-12-01T14:12:57;23.90;;;16.63;;
1569;SDS011;778;50.120;8.698;2022-12-01T14:15:32;23.97;;;17.10;;
1569;SDS011;778;50.120;8.698;2022-12-01T14:18:19;22.70;;;17.07;;
1569;SDS011;778;50.120;8.698;2022-12-01T14:21:00;26.97;;;17.53;;
1569;SDS011;778;50.120;8.698;2022-12-01T14:23:32;22.00;;;16.57;;
1569;SDS011;778;50.120;8.698;2022-12-01T14:26:12;23.70;;;17.80;;
1569;SDS011;778;50.120;8.698;2022-12-01T14:32:17;24.97;;;17.33;;
1569;SDS011;778;50.120;8.698;2022-12-01T14:34:58;23.53;;;16.10;;
1569;SDS011;778;50.120;8.698;2022-12-01T14:37:34;28.17;;;18.37;;
1569;SDS011;778;50.120;8.698;2022-12-01T14:40:12;25.63;;;18.17;;
1569;SDS011;778;50.120;8.698;2022-12-01T14:42:49;26.77;;;18.30;;
1569;SDS011;778;50.120;8.698;2022-12-01T14:45:39;29.30;;;17.67;;
1569;SDS011;778;50.120;8.698;2022-12-01T14:48:24;28.77;;;18.67;;
1569;SDS011;778;50.120;8.698;2022-12-01T14:51:08;25.70;;;16.70;;
1569;SDS011;778;50.120;8.698;2022-12-01T14:53:43;29.03;;;18.30;;
1569;SDS011;778;50.120;8.698;2022-12-01T14:56:16;26.50;;;19.40;;
1569;SDS011;778;50.120;8.698;2022-12-01T14:58:50;28.50;;;19.27;;
1569;SDS011;778;50.120;8.698;2022-12-01T15:01:21;27.10;;;18.20;;
1569;SDS011;778;50.120;8.698;2022-12-01T15:03:55;25.00;;;16.97;;
1569;SDS011;778;50.120;8.698;2022-12-01T15:06:26;26.17;;;17.93;;
1569;SDS011;778;50.120;8.698;2022-12-01T15:09:04;25.80;;;17.40;;
1569;SDS011;778;50.120;8.698;2022-12-01T15:11:58;24.63;;;17.00;;
1569;SDS011;778;50.120;8.698;2022-12-01T15:14:30;28.60;;;17.40;;
1569;SDS011;778;50.120;8.698;2022-12-01T15:17:00;23.47;;;16.47;;
1569;SDS011;778;50.120;8.698;2022-12-01T15:19:33;27.67;;;18.50;;
1569;SDS011;778;50.120;8.698;2022-12-01T15:22:06;22.27;;;15.93;;
1569;SDS011;778;50.120;8.698;2022-12-01T15:24:40;24.27;;;17.73;;
1569;SDS011;778;50.120;8.698;2022-12-01T15:27:25;26.40;;;17.33;;
1569;SDS011;778;50.120;8.698;2022-12-01T15:29:57;26.83;;;18.77;;
1569;SDS011;778;50.120;8.698;2022-12-01T15:32:30;27.47;;;17.67;;
1569;SDS011;778;50.120;8.698;2022-12-01T15:35:05;25.77;;;16.47;;
1569;SDS011;778;50.120;8.698;2022-12-01T15:37:43;28.67;;;17.47;;
1569;SDS011;778;50.120;8.698;2022-12-01T15:40:14;27.17;;;17.83;;
1569;SDS011;778;50.120;8.698;2022-12-01T15:43:06;32.23;;;17.77;;
1569;SDS011;778;50.120;8.698;2022-12-01T15:45:45;27.77;;;17.67;;
1569;SDS011;778;50.120;8.698;2022-12-01T15:48:25;28.97;;;19.13;;
1569;SDS011;778;50.120;8.698;2022-12-01T15:51:12;27.87;;;19.20;;
1569;SDS011;778;50.120;8.698;2022-12-01T15:53:45;25.77;;;16.70;;
1569;SDS011;778;50.120;8.698;2022-12-01T15:56:22;30.10;;;17.83;;
1569;SDS011;778;50.120;8.698;2022-12-01T15:58:54;31.93;;;19.13;;
1569;SDS011;778;50.120;8.698;2022-12-01T16:01:29;27.53;;;17.57;;
1569;SDS011;778;50.120;8.698;2022-12-01T16:03:59;29.43;;;17.60;;
1569;SDS011;778;50.120;8.698;2022-12-01T16:06:31;23.93;;;15.73;;
1569;SDS011;778;50.120;8.698;2022-12-01T16:09:03;26.20;;;16.97;;
1569;SDS011;778;50.120;8.698;2022-12-01T16:14:33;31.17;;;18.47;;
1569;SDS011;778;50.120;8.698;2022-12-01T16:17:03;27.90;;;17.43;;
1569;SDS011;778;50.120;8.698;2022-12-01T16:19:36;29.23;;;18.37;;